Terminal Aerodrome Forecast
Issued by NWS

Home | Current Version | Previous Version | Text Only | Print | Product List | Glossary On
Versions: 1 2 3 4 5 6 7 8 9 10 11 12 13 14 15 16 17
000
FTUS45 KGJT 211733
TAFRIL
TAF
KRIL 211733Z 2118/2218 27012G20KT P6SM FEW150
     FM212000 22025G35KT P6SM FEW140 FEW250
     FM220100 20020G30KT P6SM FEW150 FEW250
     FM220400 18011G20KT P6SM FEW150 SCT250
     FM220800 19007KT P6SM FEW130 FEW250
     FM221200 22011KT P6SM FEW100 SCT150=

USA.gov is the U.S. government's official web portal to all federal, state and local government web resources and services.